createdAt,value
2018-03-28T04:31:49.166Z,7.10
2018-03-28T04:34:18.145Z,7.00
2018-03-28T04:36:46.373Z,7.00
2018-03-28T04:39:14.803Z,7.10
2018-03-28T04:41:43.934Z,7.10
2018-03-28T04:44:12.173Z,7.00
2018-03-28T04:46:40.360Z,7.10
2018-03-28T04:49:08.577Z,7.10
2018-03-28T04:51:36.794Z,7.10
2018-03-28T04:54:05.273Z,7.10
2018-03-28T04:56:33.481Z,7.10
2018-03-28T04:59:02.450Z,7.20
2018-03-28T05:01:31.591Z,7.20
2018-03-28T05:03:59.807Z,7.20
2018-03-28T05:06:28.033Z,7.20
2018-03-28T05:08:56.305Z,7.20
2018-03-28T05:11:24.510Z,7.20
2018-03-28T05:13:52.749Z,7.30
2018-03-28T05:16:21.721Z,7.20
2018-03-28T05:18:51.448Z,7.20
2018-03-28T05:21:20.449Z,7.10
2018-03-28T05:23:49.506Z,7.10
2018-03-28T05:26:17.702Z,7.10
2018-03-28T05:28:46.712Z,7.20
2018-03-28T05:31:15.705Z,7.10
2018-03-28T05:33:44.699Z,7.20
2018-03-28T05:36:13.867Z,7.20
2018-03-28T05:38:42.061Z,7.20
2018-03-28T05:41:11.074Z,7.30
2018-03-28T05:43:39.269Z,7.30
2018-03-28T05:46:07.474Z,7.30
2018-03-28T05:48:36.110Z,7.40
2018-03-28T05:51:04.343Z,7.40
2018-03-28T05:53:32.542Z,7.40
2018-03-28T05:56:01.623Z,7.50
2018-03-28T05:58:29.817Z,7.50
2018-03-28T06:00:58.831Z,7.60
2018-03-28T06:03:27.777Z,7.70
2018-03-28T06:05:55.974Z,7.70
2018-03-28T06:08:24.952Z,7.80
2018-03-28T06:10:53.255Z,7.80
2018-03-28T06:13:22.327Z,7.90
2018-03-28T06:15:50.547Z,7.80
2018-03-28T06:18:18.809Z,8.00
2018-03-28T06:20:47.085Z,8.00
2018-03-28T06:23:15.323Z,8.10
2018-03-28T06:25:43.552Z,8.30
2018-03-28T06:28:11.823Z,8.40
2018-03-28T15:02:43.938Z,10.80
2018-03-28T15:05:12.150Z,10.60
2018-03-28T15:07:40.441Z,10.60
2018-03-28T15:10:08.645Z,10.60
2018-03-28T15:12:37.639Z,10.50
2018-03-28T15:15:06.175Z,10.50
2018-03-28T15:17:34.404Z,10.40
2018-03-28T15:20:02.626Z,10.40
2018-03-28T15:22:31.655Z,10.30
2018-03-28T15:25:00.672Z,10.40
2018-03-28T15:27:28.988Z,10.40
2018-03-28T15:29:57.209Z,10.30
2018-03-28T15:32:25.449Z,10.30
2018-03-28T15:34:53.773Z,10.20
2018-03-28T15:37:22.050Z,10.30
2018-03-28T15:39:50.379Z,10.30
2018-03-28T15:42:18.565Z,10.30
2018-03-28T15:44:47.562Z,10.30
2018-03-28T15:47:16.566Z,10.20
2018-03-28T15:49:45.574Z,10.10
2018-03-28T15:52:13.914Z,10.10
2018-03-28T15:54:42.103Z,10.10
2018-03-28T15:57:11.117Z,10.10
2018-03-28T15:59:39.470Z,10.10
2018-03-28T16:02:07.676Z,10.00
2018-03-28T16:04:35.949Z,10.00
2018-03-28T16:07:04.184Z,9.90
2018-03-28T16:09:32.401Z,10.00
2018-03-28T16:12:00.641Z,10.00
2018-03-28T16:14:28.961Z,10.10
2018-03-28T16:16:57.191Z,10.00
2018-03-28T16:19:25.536Z,10.10
2018-03-28T16:21:55.486Z,10.00
2018-03-28T16:24:23.684Z,10.00
2018-03-28T16:26:52.688Z,10.00
2018-03-28T16:29:21.671Z,10.00
2018-03-28T16:31:50.697Z,10.00
2018-03-28T16:34:18.922Z,10.00
2018-03-28T16:36:47.157Z,10.00
2018-03-28T16:39:16.002Z,10.00
2018-03-28T16:41:44.876Z,10.00
2018-03-28T16:44:13.087Z,10.00
2018-03-28T16:46:41.293Z,9.90
2018-03-28T16:49:09.541Z,9.80
2018-03-28T16:51:37.880Z,9.90
2018-03-28T16:54:06.087Z,9.80
2018-03-28T16:56:35.084Z,9.80
2018-03-28T16:59:04.247Z,9.80
2018-03-28T17:01:32.523Z,9.70
2018-03-28T17:04:01.002Z,9.70
2018-03-28T17:06:29.236Z,9.70
2018-03-28T17:08:57.488Z,9.70
2018-03-28T17:11:26.568Z,9.60
2018-03-28T17:13:54.734Z,9.60
2018-03-28T17:16:23.858Z,9.60
2018-03-28T17:18:52.091Z,9.50
2018-03-28T17:21:20.297Z,9.50
2018-03-28T17:23:49.295Z,9.50
2018-03-28T17:26:18.265Z,9.50
2018-03-28T17:28:46.538Z,9.50
2018-03-28T17:31:14.702Z,9.40
2018-03-28T17:33:42.937Z,9.40
2018-03-28T17:36:11.205Z,9.40
2018-03-28T17:38:39.543Z,9.40
2018-03-28T17:41:07.727Z,9.40
2018-03-28T17:43:35.992Z,9.40
2018-03-28T17:46:04.206Z,9.40
2018-03-28T17:48:32.477Z,9.40
2018-03-28T17:51:01.457Z,9.40
2018-03-28T17:53:30.461Z,9.30
2018-03-28T17:55:59.536Z,9.40
2018-03-28T17:58:27.733Z,9.30
2018-03-28T18:00:56.721Z,9.30
2018-03-28T18:03:25.734Z,9.30
2018-03-28T18:05:54.001Z,9.30
2018-03-28T18:08:22.966Z,9.30
2018-03-28T18:10:51.230Z,9.30
2018-03-28T18:13:19.477Z,9.30
2018-03-28T18:15:47.693Z,9.30
2018-03-28T18:18:16.066Z,9.30
2018-03-28T18:20:44.265Z,9.30
2018-03-28T18:23:13.342Z,9.20
2018-03-28T18:25:41.586Z,9.20
2018-03-28T18:28:09.849Z,9.20
2018-03-28T18:30:38.103Z,9.20
2018-03-28T18:33:07.122Z,9.10
2018-03-28T18:35:35.445Z,9.10
2018-03-28T18:38:03.665Z,9.10
2018-03-28T18:40:32.080Z,9.10
2018-03-28T18:43:01.066Z,9.10
2018-03-28T18:45:29.364Z,9.10
2018-03-28T18:47:57.589Z,9.10
2018-03-28T18:50:25.789Z,9.10
2018-03-28T18:52:54.087Z,9.20
2018-03-28T18:55:22.313Z,9.20
2018-03-28T18:57:51.270Z,9.10
2018-03-28T19:00:20.250Z,9.00
2018-03-28T19:02:48.530Z,9.00
2018-03-28T19:05:16.735Z,8.90
2018-03-28T19:07:44.970Z,8.90
2018-03-28T19:10:13.182Z,9.00
2018-03-28T19:12:42.277Z,9.00
2018-03-28T19:15:10.744Z,9.00
2018-03-28T19:17:39.051Z,9.20
2018-03-28T19:20:07.361Z,9.20
2018-03-28T19:22:35.659Z,9.20
2018-03-28T19:25:03.866Z,9.20
2018-03-28T19:27:32.120Z,9.20
2018-03-28T19:30:00.314Z,9.20
2018-03-28T19:32:28.612Z,9.20
2018-03-28T19:34:57.666Z,9.10
2018-03-28T19:37:25.829Z,9.10
2018-03-28T19:39:54.083Z,9.10
2018-03-28T19:42:22.334Z,9.10
2018-03-28T19:44:50.574Z,9.00
2018-03-28T19:47:20.158Z,9.00
2018-03-28T19:49:48.332Z,9.00
2018-03-28T19:52:16.615Z,9.00
2018-03-28T19:54:45.746Z,9.00
2018-03-28T19:57:13.984Z,9.00
2018-03-28T19:59:42.260Z,9.00
2018-03-28T20:02:10.665Z,9.00
2018-03-28T20:04:39.913Z,9.10
2018-03-28T20:07:09.781Z,9.00
2018-03-28T20:09:38.635Z,9.00
2018-03-28T20:12:08.138Z,9.10
2018-03-28T20:14:36.843Z,9.10
2018-03-28T20:17:05.150Z,9.00
2018-03-28T20:19:33.357Z,9.10
2018-03-28T20:22:01.599Z,9.10
2018-03-28T20:24:29.872Z,9.00
2018-03-28T20:26:58.138Z,9.00
2018-03-28T20:29:27.324Z,8.90
2018-03-28T20:31:55.622Z,8.90
2018-03-28T20:34:23.843Z,9.00
2018-03-28T20:36:52.133Z,9.00
2018-03-28T20:39:20.435Z,9.00
2018-03-28T20:41:49.659Z,9.00
2018-03-28T20:44:17.896Z,9.00
2018-03-28T20:46:46.918Z,9.00
2018-03-28T20:49:15.272Z,8.90
2018-03-28T20:51:43.592Z,8.90
2018-03-28T20:54:11.833Z,9.00
2018-03-28T20:56:40.083Z,8.90
2018-03-28T20:59:09.540Z,8.80
2018-03-28T21:01:37.837Z,8.80
2018-03-28T21:04:06.140Z,8.70
2018-03-28T21:06:34.314Z,8.70
2018-03-28T21:09:02.689Z,8.60
2018-03-28T21:11:30.909Z,8.60
2018-03-28T21:13:59.266Z,8.50
2018-03-28T21:16:27.558Z,8.50
2018-03-28T21:18:55.929Z,8.50
2018-03-28T21:21:24.176Z,8.50
2018-03-28T21:23:52.498Z,8.50
2018-03-28T21:26:20.723Z,8.50
2018-03-28T21:28:48.910Z,8.40
2018-03-28T21:31:17.893Z,8.40
2018-03-28T21:33:46.994Z,8.30
2018-03-28T21:36:15.355Z,8.40
2018-03-28T21:38:43.638Z,8.30
2018-03-28T21:41:11.845Z,8.30
2018-03-28T21:43:40.077Z,8.30
2018-03-28T21:46:08.325Z,8.30
2018-03-28T21:48:36.749Z,8.30
2018-03-28T21:51:04.987Z,8.30
2018-03-28T21:53:33.226Z,8.20
2018-03-28T21:56:02.317Z,8.20
2018-03-28T21:58:31.311Z,8.10
2018-03-28T22:01:00.380Z,8.20
2018-03-28T22:06:27.075Z,8.20
2018-03-28T22:08:55.293Z,8.20
2018-03-28T22:11:23.527Z,8.20
2018-03-28T22:13:52.296Z,8.10
2018-03-28T22:16:21.196Z,8.10
2018-03-28T22:18:50.772Z,8.10
2018-03-28T22:21:18.979Z,8.10
2018-03-28T22:23:47.969Z,8.00
2018-03-28T22:26:16.954Z,8.10
2018-03-28T22:28:45.958Z,8.10
2018-03-28T22:31:15.133Z,8.10
2018-03-28T22:33:43.343Z,8.10
2018-03-28T22:36:12.350Z,8.00
2018-03-28T22:38:40.610Z,8.00
2018-03-28T22:41:08.833Z,7.90
2018-03-28T22:43:37.085Z,7.90
